TimeEDT,TemperatureF,Dew PointF,Humidity,Sea Level PressureIn,VisibilityMPH,Wind Direction,Wind SpeedMPH,Gust SpeedMPH,PrecipitationIn,Events,Conditions,WindDirDegrees,DateUTC
12:15 AM,28.4,20.3,72,30.04,7.0,WNW,17.3,31.1,N/A,Snow,Light Snow,300,2013-03-27 04:15:00
12:35 AM,28.4,20.1,71,30.06,10.0,NW,15.0,33.4,N/A,Snow,Light Snow,310,2013-03-27 04:35:00
12:55 AM,28.0,21.0,75,30.07,4.0,NW,13.8,23.0,N/A,Snow,Light Snow,320,2013-03-27 04:55:00
1:15 AM,27.5,22.1,80,30.07,3.0,NW,5.8,-,N/A,Snow,Light Snow,320,2013-03-27 05:15:00
1:55 AM,27.3,21.6,79,30.07,10.0,NW,10.4,17.3,N/A,Snow,Light Snow,310,2013-03-27 05:55:00
2:15 AM,27.1,22.1,81,30.07,2.0,NW,9.2,16.1,N/A,Snow,Light Snow,320,2013-03-27 06:15:00
2:35 AM,27.5,20.7,75,30.06,10.0,NW,10.4,21.9,N/A,Snow,Light Snow,310,2013-03-27 06:35:00
3:15 AM,26.2,21.6,82,30.06,1.2,NNW,16.1,19.6,N/A,Snow,Light Snow,330,2013-03-27 07:15:00
3:35 AM,26.2,20.1,78,30.06,5.0,NNW,13.8,21.9,N/A,Snow,Light Snow,330,2013-03-27 07:35:00
3:55 AM,26.2,19.9,77,30.06,5.0,NW,9.2,17.3,N/A,Snow,Light Snow,310,2013-03-27 07:55:00
4:15 AM,26.2,19.2,75,30.05,5.0,NNW,9.2,21.9,N/A,Snow,Light Snow,330,2013-03-27 08:15:00
4:35 AM,26.1,18.3,73,30.06,10.0,NNW,6.9,19.6,N/A,,Overcast,330,2013-03-27 08:35:00
4:55 AM,26.2,16.7,67,30.06,10.0,NNW,4.6,-,N/A,,Overcast,330,2013-03-27 08:55:00
5:15 AM,26.4,16.5,66,30.06,10.0,NW,5.8,-,N/A,,Overcast,310,2013-03-27 09:15:00
5:35 AM,26.2,17.1,68,30.06,7.0,North,4.6,19.6,N/A,Snow,Light Snow,350,2013-03-27 09:35:00
5:55 AM,25.7,18.0,73,30.06,5.0,NW,13.8,20.7,N/A,Snow,Light Snow,320,2013-03-27 09:55:00
6:15 AM,25.3,18.1,74,30.07,4.0,NW,10.4,18.4,N/A,Snow,Light Snow,320,2013-03-27 10:15:00
6:35 AM,25.5,17.6,72,30.07,7.0,NNW,11.5,18.4,N/A,Snow,Light Snow,330,2013-03-27 10:35:00
6:55 AM,25.5,17.1,70,30.08,10.0,WNW,11.5,17.3,N/A,Snow,Light Snow,300,2013-03-27 10:55:00
7:15 AM,25.5,16.9,70,30.08,7.0,WNW,16.1,23.0,N/A,Snow,Light Snow,300,2013-03-27 11:15:00
7:35 AM,25.5,14.5,63,30.09,10.0,NW,13.8,25.3,N/A,Snow,Light Snow,320,2013-03-27 11:35:00
7:55 AM,25.3,14.9,65,30.09,10.0,NW,12.7,19.6,N/A,Snow,Light Snow,310,2013-03-27 11:55:00
8:15 AM,25.5,15.1,65,30.10,10.0,NW,10.4,21.9,N/A,Snow,Light Snow,320,2013-03-27 12:15:00
8:35 AM,25.7,15.4,65,30.11,10.0,WNW,8.1,24.2,N/A,Snow,Light Snow,290,2013-03-27 12:35:00
8:55 AM,25.5,15.6,66,30.11,10.0,NW,10.4,20.7,N/A,Snow,Light Snow,310,2013-03-27 12:55:00
9:15 AM,25.5,14.4,63,30.11,10.0,WNW,12.7,27.6,N/A,,Overcast,290,2013-03-27 13:15:00
9:35 AM,25.7,14.7,63,30.12,10.0,NW,12.7,27.6,N/A,Snow,Light Snow,310,2013-03-27 13:35:00
9:55 AM,26.1,14.9,63,30.12,10.0,NW,15.0,23.0,N/A,,Overcast,310,2013-03-27 13:55:00
10:15 AM,26.1,15.3,64,30.13,10.0,NW,16.1,26.5,N/A,Snow,Light Snow,320,2013-03-27 14:15:00
10:35 AM,26.4,15.6,64,30.13,10.0,NNW,17.3,27.6,N/A,Snow,Light Snow,330,2013-03-27 14:35:00
10:55 AM,26.6,14.4,60,30.14,10.0,NW,10.4,25.3,N/A,,Overcast,310,2013-03-27 14:55:00
11:15 AM,27.0,14.9,60,30.15,10.0,NW,8.1,-,N/A,,Overcast,320,2013-03-27 15:15:00
11:35 AM,27.3,14.5,59,30.15,10.0,NW,6.9,17.3,N/A,,Overcast,310,2013-03-27 15:35:00
11:55 AM,27.7,14.9,59,30.16,10.0,NW,10.4,18.4,N/A,,Overcast,320,2013-03-27 15:55:00
12:15 PM,28.0,15.1,58,30.16,10.0,NNW,8.1,16.1,N/A,,Overcast,330,2013-03-27 16:15:00
12:35 PM,28.6,15.4,58,30.16,10.0,WNW,11.5,16.1,N/A,,Overcast,300,2013-03-27 16:35:00
1:15 PM,29.1,15.1,56,30.17,10.0,NW,10.4,17.3,N/A,,Overcast,310,2013-03-27 17:15:00
1:35 PM,29.5,15.3,55,30.17,10.0,NW,9.2,21.9,N/A,,Overcast,320,2013-03-27 17:35:00
1:55 PM,29.8,15.1,54,30.17,10.0,NNW,9.2,17.3,N/A,,Overcast,330,2013-03-27 17:55:00
2:15 PM,30.2,15.6,55,30.16,10.0,NW,13.8,26.5,N/A,Snow,Light Snow,320,2013-03-27 18:15:00
2:35 PM,30.6,16.0,55,30.16,10.0,NW,9.2,17.3,N/A,,Overcast,320,2013-03-27 18:35:00
2:55 PM,30.6,16.7,56,30.16,10.0,NNW,9.2,-,N/A,,Overcast,330,2013-03-27 18:55:00
3:15 PM,30.9,16.0,54,30.15,10.0,WNW,11.5,25.3,N/A,,Overcast,290,2013-03-27 19:15:00
3:35 PM,31.1,15.8,53,30.15,10.0,NNW,6.9,18.4,N/A,,Overcast,330,2013-03-27 19:35:00
3:55 PM,31.5,15.3,51,30.14,10.0,NNW,10.4,16.1,N/A,,Overcast,330,2013-03-27 19:55:00
4:15 PM,31.8,14.7,49,30.13,10.0,NW,9.2,20.7,N/A,,Overcast,310,2013-03-27 20:15:00
4:35 PM,32.2,14.9,49,30.13,10.0,NNW,9.2,-,N/A,,Overcast,340,2013-03-27 20:35:00
4:55 PM,32.0,15.1,50,30.13,10.0,NW,5.8,-,N/A,,Mostly Cloudy,310,2013-03-27 20:55:00
5:15 PM,32.4,15.3,49,30.13,10.0,NW,11.5,19.6,N/A,,Mostly Cloudy,320,2013-03-27 21:15:00
5:35 PM,32.0,15.3,50,30.14,10.0,NW,9.2,17.3,N/A,,Mostly Cloudy,310,2013-03-27 21:35:00
6:15 PM,32.5,15.4,49,30.15,10.0,North,8.1,19.6,N/A,,Overcast,350,2013-03-27 22:15:00
6:35 PM,32.0,15.4,51,30.15,10.0,WNW,4.6,-,N/A,,Overcast,300,2013-03-27 22:35:00
7:15 PM,32.0,14.9,49,30.16,10.0,NW,10.4,19.6,N/A,,Overcast,320,2013-03-27 23:15:00
7:35 PM,31.3,14.9,51,30.16,10.0,NW,8.1,19.6,N/A,,Overcast,310,2013-03-27 23:35:00
7:55 PM,31.1,14.9,51,30.16,10.0,North,3.5,-,N/A,,Overcast,360,2013-03-27 23:55:00
8:15 PM,30.7,14.5,51,30.16,10.0,NW,4.6,-,N/A,,Overcast,320,2013-03-28 00:15:00
8:35 PM,30.4,14.7,52,30.16,10.0,NW,4.6,-,N/A,,Overcast,320,2013-03-28 00:35:00
8:55 PM,30.2,14.2,51,30.16,10.0,NW,4.6,-,N/A,,Scattered Clouds,320,2013-03-28 00:55:00
9:15 PM,30.2,14.0,51,30.16,10.0,NW,4.6,-,N/A,,Clear,310,2013-03-28 01:15:00
9:35 PM,30.2,13.8,51,30.16,10.0,WNW,8.1,-,N/A,,Clear,300,2013-03-28 01:35:00
9:55 PM,30.0,13.6,51,30.16,10.0,Calm,Calm,-,N/A,,Clear,0,2013-03-28 01:55:00
10:15 PM,29.8,14.0,52,30.16,10.0,Calm,Calm,-,N/A,,Clear,0,2013-03-28 02:15:00
10:35 PM,29.5,13.6,52,30.16,10.0,WNW,3.5,-,N/A,,Clear,290,2013-03-28 02:35:00
10:55 PM,29.3,13.5,52,30.17,10.0,Calm,Calm,-,N/A,,Scattered Clouds,0,2013-03-28 02:55:00
11:15 PM,29.3,14.0,53,30.16,10.0,NNW,4.6,-,N/A,,Mostly Cloudy,330,2013-03-28 03:15:00
11:35 PM,29.1,14.5,55,30.16,10.0,NW,11.5,17.3,N/A,,Mostly Cloudy,320,2013-03-28 03:35:00
11:55 PM,29.1,14.5,55,30.16,10.0,WNW,5.8,-,N/A,,Mostly Cloudy,300,2013-03-28 03:55:00